Tiempo atmosférico en la estación meteorológica de Tenerife Norte Aeropuerto, Santa Cruz de Tenerife (632 m.)



Fecha
DESCASC
Temp. máxima en grados centígrados (hora)
DESCASC
Temp. mínima en grados centígrados (hora)
DESCASC
Temp. media en grados centígrados
DESCASC
Racha de viento máxima en m/sg (hora)
DESCASC
Velocidad máxima media en intervalos de 10 minutos(hora)
DESCASC
Precipitaciones diarias en mm
DESCASC
Precipitaciones de 00:00 a 06:00 en mm
DESCASC
Precipitaciones de 06:00 a 12:00 en mm
DESCASC
Precipitaciones de 12:00 a 18:00 en mm
DESCASC
Precipitaciones de 18:00 a 24:00 en mm
DESCASC
25-01-2020 17.1 (13:20) 8.6 (00:00) 12.9 9.17 (12:10) 6.11 (11:30) 0 0 0 0 0
24-01-2020 17.1 (12:50) 6.4 (00:00) 11.8 9.72 (15:40) 7.22 (15:50) 0 0 0 0 0
23-01-2020 16.3 (14:20) 8.9 (00:00) 12.6 10.28 (11:10) 7.5 (10:50) 0.3 0.3 0 0 0
22-01-2020 15.5 (12:40) 7.1 (00:00) 11.3 8.89 (15:40) 5.83 (16:20) 0 0 0 0 0
21-01-2020 14.7 (13:10) 8.4 (00:00) 11.5 15 (04:00) 10.28 (04:10) 0.4 0.4 0 0 0
20-01-2020 15.6 (13:50) 10.5 (00:00) 13.1 16.11 (05:30) 11.39 (05:30) 1 0.1 0 0 0.9
19-01-2020 20.5 (13:50) 10.8 (00:00) 15.7 9.72 (23:20) 6.67 (04:20) 0 0 0 0 0
18-01-2020 17.4 (14:00) 10.2 (00:00) 13.8 9.72 (09:00) 6.94 (11:10) 0 0 0 0 0
17-01-2020 17.2 (15:10) 10.1 (00:00) 13.7 9.17 (10:00) 7.22 (11:10) 0 0 0 0 0
16-01-2020 18.5 (15:10) 9.3 (00:00) 13.9 6.67 (15:20) 4.44 (15:30) 0 0 0 0 0
15-01-2020 17.4 (15:00) 9.7 (00:00) 13.5 8.89 (12:20) 5.28 (12:20) 0 0 0 0 0
14-01-2020 17.3 (15:00) 9.4 (00:00) 13.3 10.83 (10:20) 6.94 (11:40) 0 0 0 0 0
13-01-2020 18.3 (14:10) 9.8 (00:00) 14 9.72 (14:20) 6.39 (01:10) 0 0 0 0 0
12-01-2020 15.7 (14:30) 11.2 (19:40) 13.4 10.28 (12:30) 7.5 (12:30) 0 0 0 0 0
11-01-2020 14.8 (14:10) 11.4 (00:00) 13.1 13.33 (08:20) 10 (18:40) 0 0 0 0 0
10-01-2020 15.8 (15:00) 12.3 (00:00) 14.1 9.17 (00:40) 6.11 (00:50) 1.4 0.1 1 0.3 0
09-01-2020 16.2 (15:40) 10.9 (00:00) 13.6 15 (17:40) 9.44 (17:30) 0 0 0 0 0
08-01-2020 17.2 (13:50) 9.7 (00:00) 13.5 9.72 (18:40) 5.56 (19:40) 0.3 0 0.3 0 0
07-01-2020 15.3 (13:50) 10.3 (00:00) 12.8 11.39 (10:50) 7.78 (12:00) 0.2 0 0.2 0 0
06-01-2020 16.4 (13:40) 10.7 (00:00) 13.5 15.28 (20:10) 10.28 (16:00) 0.4 0 0 0 0.4
05-01-2020 17.4 (14:40) 9.7 (00:00) 13.5 7.78 (11:40) 4.72 (20:20) 0 0 0 0 0
04-01-2020 15.8 (13:00) 10.7 (00:00) 13.3 8.89 (12:40) 6.67 (12:50) 0 0 0 0 0
03-01-2020 16 (14:10) 10.9 (00:00) 13.4 13.33 (07:00) 9.72 (07:00) 0 0 0 0 0
02-01-2020 16.7 (13:20) 9.8 (00:00) 13.3 11.67 (09:40) 6.67 (09:50) 0 0 0 0 0
01-01-2020 17.4 (12:30) 10.4 (00:00) 13.9 12.78 (11:50) 8.61 (11:30) 0 0 0 0 0
31-12-2019 17.3 (01:10) 11.3 (00:00) 14.3 7.22 (12:10) 5 (12:20) 0 0 0 0 0
30-12-2019 18.9 (12:40) 13 (00:00) 15.9 9.17 (12:20) 6.39 (11:40) 0 0 0 0 0
29-12-2019 22.3 (15:00) 12.7 (00:00) 17.5 9.72 (11:30) 6.39 (12:00) 0 0 0 0 0
28-12-2019 22.8 (14:40) 14.8 (00:00) 18.8 7.78 (14:50) 5.28 (16:00) 0 0 0 0 0
27-12-2019 20.6 (12:40) 12.2 (00:00) 16.4 9.17 (14:00) 6.67 (14:00) 0 0 0 0 0

Gráficas

Temp. máximas Temp. mínimas Temp. medias Precipitaciones Rachas de viento máximas Velocidades máximas media en intervalos de 10 minutos

Datos horarios

Fecha y hora oficial Temperatura (ºC) Velocidad del viento (km/h) Dirección del viento Racha (km/h) Dirección de racha Precipitación (mm) Presión (hPa) Tendencia (hPa) Humedad (%)
2020-01-25 23:00:00 11.9 12 Oeste 15 Noroeste 0 953.9 0.8 90
2020-01-25 22:00:00 11.5 10 Oeste 15 Oeste 0 953.9 1.3 92
2020-01-25 21:00:00 12.2 6 Oeste 15 Oeste 0 953.7 1.7 88
2020-01-25 20:00:00 11.9 9 Oeste 17 Oeste 0 953.1 1.5 85
2020-01-25 19:00:00 11.6 12 Oeste 18 Oeste 0 952.6 1.2 88
2020-01-25 18:00:00 12.6 11 Oeste 22 Oeste 0 952 0.3 81
2020-01-25 17:00:00 14.1 13 Noroeste 24 Norte 0 951.6 -0.5 75
2020-01-25 16:00:00 14.5 17 Noroeste 28 Noroeste 0 951.4 -1.3 69
2020-01-25 15:00:00 15.1 15 Noroeste 28 Oeste 0 951.7 -1.4 65
2020-01-25 14:00:00 15.6 20 Noroeste 32 Noroeste 0 952.1 -1.1 64
2020-01-25 13:00:00 15.4 19 Noroeste 33 Oeste 0 952.7 0.1 66
2020-01-25 12:00:00 15.5 20 Noroeste 30 Noroeste 0 953.1 1.2 62
2020-01-25 11:00:00 14.2 19 Oeste 28 Oeste 0 953.2 2 72
2020-01-25 10:00:00 13.9 18 Oeste 24 Oeste 0 952.6 2.1 79
2020-01-25 09:00:00 12.1 12 Oeste 21 Sudoeste 0 951.9 1.9 87
2020-01-25 08:00:00 10.3 12 Oeste 22 Oeste 0 951.2 1.2 91
2020-01-25 07:00:00 9.7 15 Oeste 24 Oeste 0 950.5 0.4 94
2020-01-25 06:00:00 11.1 18 Oeste 24 Oeste 0 950 -0.4 93
2020-01-25 05:00:00 10.9 16 Oeste 22 Oeste 0 950 -0.5 91
2020-01-25 04:00:00 10.2 12 Oeste -- -- 0 950.1 -0.5 91
2020-01-25 03:00:00 8.8 8 Oeste 15 Oeste 0 950.4 -0.5 96
2020-01-25 02:00:00 10.3 12 Oeste 21 Oeste 0 950.5 -0.4 93
2020-01-25 01:00:00 11.5 13 Oeste 18 Oeste 0 950.6 -0.3 93
2020-01-25 00:00:00 11.5 13 Oeste 22 Oeste 0 950.9 0.3 89
2020-01-24 23:00:00 11.7 11 Oeste 24 Noroeste 0 950.9 0.6 95
2020-01-24 22:00:00 11.8 13 Oeste 21 Oeste 0 950.9 1.2 87
2020-01-24 21:00:00 11.4 13 Oeste 18 Oeste 0 950.6 1.4 89
2020-01-24 20:00:00 11.6 13 Oeste 17 Oeste 0 950.3 1.6 90
2020-01-24 19:00:00 11.7 14 Oeste 30 Oeste 0 949.7 1.2 87
2020-01-24 18:00:00 13.6 22 Oeste 33 Oeste 0 949.2 0.5 72
2020-01-24 17:00:00 14.8 20 Oeste 35 Oeste 0 948.7 -0.3 70
2020-01-24 16:00:00 14.6 25 Oeste 35 Oeste 0 948.5 -1.2 69
2020-01-24 15:00:00 14.1 19 Oeste 32 Noroeste 0 948.7 -1.7 76
2020-01-24 14:00:00 13.9 19 Noroeste 33 Oeste 0 949 -1.4 83
2020-01-24 13:00:00 16.7 20 Oeste 32 Oeste 0 949.7 -0.4 56
2020-01-24 12:00:00 16.1 21 Noroeste 30 Noroeste 0 950.4 0.7 64
2020-01-24 11:00:00 14.3 13 Oeste 21 Oeste 0 950.4 1.4 69
2020-01-24 10:00:00 13.8 9 Oeste 17 Oeste 0 950.1 1.5 73
2020-01-24 09:00:00 11.7 4 Oeste 15 Sudoeste 0 949.7 1.3 72
2020-01-24 08:00:00 8.6 6 Oeste 15 Sur 0 949 0.5 74
2020-01-24 07:00:00 8.9 3 Sudoeste 8 Sur 0 948.6 -0.2 75
2020-01-24 06:00:00 9.2 4 Sur 11 Sur 0 948.4 -0.6 72
2020-01-24 05:00:00 9 4 Sudoeste 11 Oeste 0 948.5 -0.8 72
2020-01-24 04:00:00 7.4 6 Noroeste 11 Sudoeste 0 948.8 -0.4 76
2020-01-24 03:00:00 9.8 6 Sudoeste 11 Sudoeste 0 949 -0.5 76
2020-01-24 02:00:00 10.6 5 Sudoeste 21 Oeste 0 949.3 -0.4 76
2020-01-24 01:00:00 8.7 12 Oeste 17 Oeste 0 949.2 -0.4 73
2020-01-24 00:00:00 10.3 12 Sudoeste 21 Oeste 0 949.5 0.3 76
2020-01-23 23:00:00 10.6 14 Oeste 21 Oeste 0 949.7 0.9 78
2020-01-23 22:00:00 10.4 13 Oeste 21 Oeste 0 949.6 1.4 85
2020-01-23 21:00:00 11.1 12 Oeste 17 Oeste 0 949.2 1.4 81
2020-01-23 20:00:00 11.1 8 Sudoeste 15 Oeste 0 948.8 1.2 85
2020-01-23 19:00:00 11.3 14 Oeste 18 Oeste 0 948.2 0.7 85
2020-01-23 18:00:00 12.7 11 Oeste 24 Oeste 0 947.8 0.3 77
2020-01-23 17:00:00 14.3 15 Oeste 22 Oeste 0 947.6 -0.2 71
2020-01-23 16:00:00 14 13 Oeste 28 Noroeste 0 947.5 -0.8 69
2020-01-23 15:00:00 14.9 17 Oeste 30 Oeste 0 947.5 -1.3 62
2020-01-23 14:00:00 15.4 19 Oeste 32 Oeste 0 947.8 -1.2 60
2020-01-23 13:00:00 14.8 24 Oeste 33 Oeste 0 948.3 -0.3 66
2020-01-23 12:00:00 14.8 23 Oeste 37 Noroeste 0 948.8 1 67
2020-01-23 11:00:00 13.9 27 Oeste 35 Oeste 0 949 1.7 76
2020-01-23 10:00:00 13.2 21 Oeste 30 Oeste 0 948.6 1.8 84
2020-01-23 09:00:00 11.2 17 Oeste 26 Oeste 0 947.8 1.2 84
2020-01-23 08:00:00 9.4 13 Oeste 28 Oeste 0 947.3 0.6 89
2020-01-23 07:00:00 9.8 15 Oeste 24 Noroeste 0 946.8 0.1 89
2020-01-23 06:00:00 10.1 15 Noroeste 22 Oeste 0 946.6 -0.4 91
2020-01-23 05:00:00 10.6 7 Sudoeste 28 Oeste 0 946.7 -0.7 79
2020-01-23 04:00:00 9.9 19 Oeste 32 Oeste 0 946.7 -0.9 92
2020-01-23 03:00:00 10.8 13 Oeste 24 Oeste 0 947 -1 81
2020-01-23 02:00:00 10.5 13 Oeste 26 Sudoeste 0 947.4 -0.4 82
2020-01-23 01:00:00 10.1 9 Oeste 21 Oeste 0.3 947.6 -0.1 95
2020-01-23 00:00:00 10.1 12 Oeste 15 Oeste 0 948 0.3 74
2020-01-22 23:00:00 10.8 10 Sudoeste 22 Oeste 0 947.8 0.7 70
2020-01-22 22:00:00 10.7 16 Oeste 24 Oeste 0 947.7 1.2 78
2020-01-22 21:00:00 10.7 14 Oeste 22 Oeste 0 947.7 1.5 81
2020-01-22 20:00:00 10.3 14 Oeste 18 Oeste 0 947.1 1 85
2020-01-22 19:00:00 11.1 13 Oeste 18 Oeste 0 946.5 0.5 82
2020-01-22 18:00:00 12.3 12 Oeste 24 Oeste 0 946.2 -0.1 74
2020-01-22 17:00:00 14.1 16 Oeste 32 Noroeste 0 946.1 -0.5 68
2020-01-22 16:00:00 14 20 Oeste 32 Oeste 0 946 -1.1 68
2020-01-22 15:00:00 13.9 13 Noroeste 22 Noroeste 0 946.3 -1.4 67
2020-01-22 14:00:00 14 12 Noroeste 21 Noroeste 0 946.6 -1.4 58
2020-01-22 13:00:00 15.4 4 Norte 18 Noroeste 0 947.1 -0.7 52
2020-01-22 12:00:00 14.3 12 Noroeste 24 Noroeste 0 947.7 0.4 64
2020-01-22 11:00:00 13.9 13 Oeste 18 Oeste 0 948 1.2 57
2020-01-22 10:00:00 12.5 12 Oeste 15 Oeste 0 947.8 1.2 68
2020-01-22 09:00:00 10.2 8 Oeste 11 Oeste 0 947.3 1.2 75
2020-01-22 08:00:00 9.7 6 Oeste 18 Sudoeste 0 946.8 0.8 70
2020-01-22 07:00:00 9.4 13 Oeste 18 Oeste 0 946.6 0.6 82
2020-01-22 06:00:00 8 12 Oeste 21 Oeste 0 946.1 -0.1 89
2020-01-22 05:00:00 9.3 13 Oeste 21 Oeste 0 946 -0.3 85
2020-01-22 04:00:00 9.2 15 Oeste 24 Oeste 0 946 -0.6 86
2020-01-22 03:00:00 9 16 Oeste 22 Oeste 0 946.2 -0.5 88
2020-01-22 02:00:00 9.1 17 Oeste 24 Oeste 0 946.3 -0.2 87
2020-01-22 01:00:00 9.5 18 Oeste 28 Oeste 0 946.6 0.3 89
2020-01-22 00:00:00 10.3 19 Oeste 32 Oeste 0 946.7 0.4 88
2020-01-21 23:00:00 10.1 17 Noroeste 30 Oeste 0 946.5 0.8 89
2020-01-21 22:00:00 8.9 17 Oeste 24 Oeste 0 946.3 1 93
2020-01-21 21:00:00 9.7 17 Oeste 24 Noroeste 0 946.3 1.5 90
2020-01-21 20:00:00 9.8 20 Oeste 28 Oeste 0 945.7 0.9 89
2020-01-21 19:00:00 9.7 18 Oeste 32 Oeste 0 945.3 0.7 87
2020-01-21 18:00:00 9.7 23 Oeste 32 Noroeste 0 944.8 0.4 91
2020-01-21 17:00:00 10 21 Noroeste 30 Oeste 0 944.8 0 95
2020-01-21 16:00:00 10.7 18 Noroeste 28 Noroeste 0 944.6 -0.5 86
2020-01-21 15:00:00 11.2 17 Noroeste 35 Noroeste 0 944.4 -1.5 86
2020-01-21 14:00:00 11.7 19 Noroeste 35 Noroeste 0 944.8 -1.2 89
2020-01-21 13:00:00 14 19 Noroeste 28 Noroeste 0 945.1 -0.3 72
2020-01-21 12:00:00 12.4 17 Noroeste 32 Noroeste 0 945.9 1.2 71
2020-01-21 11:00:00 12.3 13 Noroeste 22 Noroeste 0 946 1.5 74
2020-01-21 10:00:00 10.8 14 Noroeste 39 Noroeste 0 945.4 1.3 81
2020-01-21 09:00:00 11.2 22 Noroeste 41 Noroeste 0 944.7 0.8 71
2020-01-21 08:00:00 10.7 23 Noroeste 39 Oeste 0 944.5 0.7 81
2020-01-21 07:00:00 10.8 24 Oeste 42 Oeste 0 944.1 0 64
2020-01-21 06:00:00 11 30 Noroeste 52 Noroeste 0 943.9 -0.8 66
2020-01-21 05:00:00 10.9 30 Noroeste 52 Noroeste 0 943.8 -1.3 69
2020-01-21 04:00:00 10.9 35 Noroeste 54 Noroeste 0 944.1 -1.4 74
2020-01-21 03:00:00 10.8 23 Noroeste 39 Noroeste 0 944.7 -1.3 79
2020-01-21 02:00:00 10.8 25 Noroeste 41 Noroeste 0 945.1 -1.1 78
2020-01-21 01:00:00 10.6 26 Noroeste 41 Noroeste 0.4 945.5 -0.6 87
2020-01-21 00:00:00 10.5 26 Noroeste 45 Noroeste 0.9 946 0.2 97
2020-01-20 23:00:00 11.7 27 Noroeste 46 Oeste 0 946.2 0.5 85
2020-01-20 22:00:00 11.7 31 Noroeste 50 Oeste 0 946.1 0.7 71
2020-01-20 21:00:00 12.2 35 Noroeste 50 Noroeste 0 945.8 0.7 76
2020-01-20 20:00:00 12 36 Noroeste 58 Noroeste 0 945.7 0.6 74
2020-01-20 19:00:00 12.2 32 Noroeste 52 Noroeste 0 945.4 0.3 81
2020-01-20 18:00:00 12.4 36 Noroeste 52 Noroeste 0 945.1 0 80
2020-01-20 17:00:00 13.2 31 Noroeste 50 Noroeste 0 945.1 -0.4 77
2020-01-20 16:00:00 13.3 33 Noroeste 52 Noroeste 0 945.1 -1.7 76
2020-01-20 15:00:00 13.4 36 Noroeste 54 Noroeste 0 945.1 -2.6 76
2020-01-20 14:00:00 14.3 33 Noroeste 55 Oeste 0 945.5 -2.8 72
2020-01-20 13:00:00 13.7 29 Noroeste 48 Noroeste 0 946.8 -1.5 79
2020-01-20 12:00:00 13.3 35 Oeste 50 Oeste 0 947.7 -0.4 82
2020-01-20 11:00:00 11.6 34 Noroeste 48 Oeste 0 948.3 0.2 94
2020-01-20 10:00:00 12.7 31 Noroeste 48 Noroeste 0 948.3 0.6 83
2020-01-20 09:00:00 11.6 34 Noroeste 48 Oeste 0 948.1 0.6 86
2020-01-20 08:00:00 11.1 33 Noroeste 52 Noroeste 0 948.1 0.3 82
2020-01-20 07:00:00 11.5 41 Noroeste 55 Noroeste 0 947.7 -0.3 89
2020-01-20 06:00:00 11.3 40 Noroeste 58 Noroeste 0 947.5 -1 88
2020-01-20 05:00:00 11.9 40 Noroeste 55 Noroeste 0 947.8 -2 90
2020-01-20 04:00:00 12.2 34 Noroeste 50 Noroeste 0 948 -2.5 90
2020-01-20 03:00:00 12.7 31 Noroeste 45 Noroeste 0 948.5 -3 97
2020-01-20 02:00:00 12.6 26 Noroeste 42 Noroeste 0.1 949.8 -2.4 92
2020-01-20 01:00:00 13.5 21 Noroeste 33 Noroeste 0 950.5 -2.1 99
2020-01-20 00:00:00 13.5 20 Oeste 35 Oeste 0 951.5 -1.1 97
2020-01-19 23:00:00 13.3 17 Noroeste 26 Noroeste 0 952.2 -0.4 92
2020-01-19 22:00:00 12.5 9 Oeste 17 Oeste 0 952.6 0.4 86
2020-01-19 21:00:00 12.7 7 Sudeste 18 Sudeste 0 952.6 0.5 88
2020-01-19 20:00:00 12.4 10 Sur 15 Sudeste 0 952.6 0.3 93
2020-01-19 19:00:00 13.1 11 Sudeste 18 Sudeste 0 952.2 -0.2 91
2020-01-19 18:00:00 14 11 Sudeste 22 Sudeste 0 952.1 -0.8 85
2020-01-19 17:00:00 15.5 14 Sudeste 22 Este 0 952.3 -1.3 69
2020-01-19 16:00:00 16.7 16 Este 22 Este 0 952.4 -2.3 62
2020-01-19 15:00:00 17.9 12 Sudeste 22 Este 0 952.9 -2.9 49
2020-01-19 14:00:00 20.3 12 Este 22 Este 0 953.6 -2.5 22
2020-01-19 13:00:00 19.1 14 Este 26 Este 0 954.7 -1.4 30
2020-01-19 12:00:00 17.8 17 Este 26 Sudeste 0 955.8 -0.4 44
2020-01-19 11:00:00 16.4 16 Sudeste 30 Sudeste 0 956.1 0.3 59
2020-01-19 10:00:00 15.7 19 Sudeste 26 Sudeste 0 956.1 0.6 57
2020-01-19 09:00:00 14 13 Sudeste 21 Sudeste 0 956.2 1.1 69
2020-01-19 08:00:00 13.2 15 Sudeste 26 Sudeste 0 955.8 0.7 58
2020-01-19 07:00:00 13.2 18 Sudeste 30 Sudeste 0 955.5 0.1 54
2020-01-19 06:00:00 13.1 20 Sudeste 28 Sudeste 0 955.1 -0.9 56
2020-01-19 05:00:00 13 16 Sudeste 33 Sudeste 0 955.1 -1.2 63
2020-01-19 04:00:00 13.5 19 Sudeste 30 Este 0 955.4 -1.3 49
2020-01-19 03:00:00 13.2 17 Sudeste 30 Sur 0 956 -1.1 63
2020-01-19 02:00:00 12.7 16 Sudeste 30 Sudeste 0 956.3 -0.9 83
2020-01-19 01:00:00 13.2 19 Sudeste 32 Sudeste 0 956.7 -0.6 65
2020-01-19 00:00:00 13.4 19 Sudeste 30 Sudeste 0 957.1 0.1 58
2020-01-18 23:00:00 12.7 17 Sudeste 26 Sudeste 0 957.2 0.3 83
2020-01-18 22:00:00 12.6 17 Sudeste 26 Sudeste 0 957.3 0.8 77
2020-01-18 21:00:00 13.3 16 Sudeste 24 Sudeste 0 957 0.8 60
2020-01-18 20:00:00 13 13 Sudeste 21 Sudeste 0 956.9 0.6 58
2020-01-18 19:00:00 13.2 14 Sudeste 22 Sudeste 0 956.5 0 68
2020-01-18 18:00:00 13.9 16 Sudeste 28 Este 0 956.2 -0.4 73
2020-01-18 17:00:00 15 22 Este 32 Sudeste 0 956.3 -0.8 65
2020-01-18 16:00:00 15.9 20 Este 30 Este 0 956.5 -1.6 60
2020-01-18 15:00:00 16.6 20 Este 28 Este 0 956.6 -2.3 54
2020-01-18 14:00:00 17.2 18 Este 30 Este 0 957.1 -2.2 47
2020-01-18 13:00:00 16.7 22 Este 33 Este 0 958.1 -0.9 55
2020-01-18 12:00:00 16.4 22 Este 33 Este 0 958.9 0.5 62
2020-01-18 11:00:00 15.5 19 Sudeste 32 Sudeste 0 959.3 1.3 72
2020-01-18 10:00:00 13.5 20 Sudeste 35 Sudeste 0 959 1.6 96
2020-01-18 09:00:00 12.6 18 Sudeste 35 Sudeste 0 958.4 1.4 97
2020-01-18 08:00:00 11.8 16 Sudeste 24 Este 0 958 1 99
2020-01-18 07:00:00 12.1 13 Sudeste 22 Sudeste 0 957.4 0.1 98
2020-01-18 06:00:00 12 11 Sudeste 22 Sudeste 0 957 -0.4 98
2020-01-18 05:00:00 11 15 Sudeste 22 Sudeste 0 957 -0.5 95
2020-01-18 04:00:00 11 12 Sudeste 21 Sudeste 0 957.3 -0.5 97
2020-01-18 03:00:00 10.9 11 Sudeste 15 Sudeste 0 957.4 -0.9 95
2020-01-18 02:00:00 10.7 10 Sudeste 21 Sudeste 0 957.5 -0.9 90
2020-01-18 01:00:00 11.1 15 Este 21 Sudeste 0 957.8 -0.2 93
2020-01-18 00:00:00 11.6 13 Sudeste 18 Sudeste 0 958.3 0.8 92
2020-01-17 23:00:00 11.5 12 Sudeste 17 Sudeste 0 958.4 1.2 86
2020-01-17 22:00:00 10.5 9 Sudeste 13 Sudeste 0 958 1.5 84
2020-01-17 21:00:00 11.6 10 Sudeste 15 Sudeste 0 957.5 1.1 78
2020-01-17 20:00:00 12.7 12 Sudeste 18 Sudeste 0 957.2 0.8 67
2020-01-17 19:00:00 12.8 12 Sudeste 18 Sudeste 0 956.5 0.2 62
2020-01-17 18:00:00 14.6 9 Sudeste 15 Este 0 956.4 -0.2 34
2020-01-17 17:00:00 16 12 Este 18 Este 0 956.4 -0.6 33
2020-01-17 16:00:00 16.3 13 Este 18 Este 0 956.3 -1.6 42
2020-01-17 15:00:00 16.7 11 Este 24 Este 0 956.6 -2 31
2020-01-17 14:00:00 16.5 13 Este 28 Este 0 957 -1.6 49
2020-01-17 13:00:00 16.3 17 Este 30 Este 0 957.9 0 52
2020-01-17 12:00:00 15.9 19 Sudeste 33 Sudeste 0 958.6 1.2 52
2020-01-17 11:00:00 14.9 24 Este 33 Sudeste 0 958.6 1.4 61
2020-01-17 10:00:00 13.6 25 Este 33 Este 0 957.9 1.1 69
2020-01-17 09:00:00 12.5 18 Sudeste 28 Sudeste 0 957.4 0.9 75
2020-01-17 08:00:00 11.4 16 Sudeste 24 Sudeste 0 957.2 0.9 82
2020-01-17 07:00:00 11.4 16 Sudeste 24 Sudeste 0 956.8 0.6 81
2020-01-17 06:00:00 11.4 15 Sudeste 22 Sudeste 0 956.5 0.4 81
2020-01-17 05:00:00 10.7 12 Sudeste 22 Sur 0 956.3 0.1 83
2020-01-17 04:00:00 11.3 15 Sudeste 22 Sudeste 0 956.2 -0.5 79
2020-01-17 03:00:00 11.6 14 Sudeste 28 Sur 0 956.1 -1 53
2020-01-17 02:00:00 11.7 14 Sudeste 21 Sudeste 0 956.2 -1 47
2020-01-17 01:00:00 10.6 12 Sudeste 15 Sudeste 0 956.7 -0.2 58
2020-01-17 00:00:00 10.6 11 Sudeste 15 Sudeste 0 957.1 0.7 44
2020-01-16 23:00:00 11.1 6 Sudeste 9 Sudeste 0 957.2 1.1 47
2020-01-16 22:00:00 10.8 8 Sudeste 11 Sur 0 956.9 1.4 56
2020-01-16 21:00:00 11 8 Sudeste 9 Sudeste 0 956.4 1.3 68
2020-01-16 20:00:00 11.5 3 Sur 8 Sur 0 956.1 1 68
2020-01-16 19:00:00 12.2 5 Sudeste 11 Este 0 955.5 1 76
2020-01-16 18:00:00 14.1 9 Este 17 Este 0 955.1 0.7 69
2020-01-16 17:00:00 15.9 10 Este 17 Norte 0 955.1 0.6 61
2020-01-16 16:00:00 17.2 14 Noroeste 24 Noroeste 0 954.5 -0.7 41
2020-01-16 15:00:00 17.8 5 Este 21 Este 0 954.4 -1.5 40
2020-01-16 14:00:00 17.6 5 Sudeste 21 Sudeste 0 954.5 -1.4 41
2020-01-16 13:00:00 17.1 10 Este 21 Sudeste 0 955.2 -0.3 49
2020-01-16 12:00:00 16.8 7 Este 21 Este 0 955.9 1 43
2020-01-16 11:00:00 16.2 10 Este 18 Sudeste 0 955.9 1.8 47
2020-01-16 10:00:00 15.3 4 Nordeste 9 Sudeste 0 955.5 2.5 59
2020-01-16 09:00:00 11.1 3 Oeste 9 Sur 0 954.9 2.1 82
2020-01-16 08:00:00 9.9 7 Sur 15 Sur 0 954.1 1.3 81
2020-01-16 07:00:00 9.7 10 Sudeste 15 Sur 0 953 0 64
2020-01-16 06:00:00 10.3 10 Sur 13 Sur 0 952.8 0.3 45
2020-01-16 05:00:00 10.7 10 Oeste 15 Sudoeste 0 952.8 0.1 75
2020-01-16 04:00:00 11.2 12 Sudoeste 18 Sudoeste 0 953 0 72
2020-01-16 03:00:00 11.1 6 Sur 17 Oeste 0 952.5 -0.7 49
2020-01-16 02:00:00 11.9 6 Sur 15 Sur 0 952.7 -0.2 46
2020-01-16 01:00:00 11.3 10 Sur 17 Sur 0 953 0.4 46
2020-01-16 00:00:00 11.1 11 Sudoeste 18 Sudoeste 0 953.2 0.8 46
2020-01-15 23:00:00 10.3 10 Sur 17 Sur 0 952.9 0.8 49
2020-01-15 22:00:00 10.8 8 Sur 13 Sur 0 952.6 1.2 75
2020-01-15 21:00:00 11.3 11 Sur 15 Sur 0 952.4 1.5 80
2020-01-15 20:00:00 11.1 7 Sur 13 Sudeste 0 952.1 1.1 83
2020-01-15 19:00:00 12.7 10 Sudeste 17 Sudeste 0 951.4 0.5 76
2020-01-15 18:00:00 14 10 Sudeste 21 Sudeste 0 950.9 0 65
2020-01-15 17:00:00 15.8 13 Sudeste 24 Sudeste 0 951 0.1 40
2020-01-15 16:00:00 16.8 11 Sudeste 24 Sudeste 0 950.9 -0.4 37
2020-01-15 15:00:00 17.1 15 Sudeste 30 Sudeste 0 950.9 -1.3 30
2020-01-15 14:00:00 17 16 Sudeste 32 Sudeste 0 950.9 -1.4 27
2020-01-15 13:00:00 16.7 19 Sudeste 32 Sudeste 0 951.3 -0.6 32
2020-01-15 12:00:00 16.1 18 Sudeste 30 Sudeste 0 952.2 0.4 37
2020-01-15 11:00:00 15.2 19 Este 30 Este 0 952.3 0.9 41
2020-01-15 10:00:00 14.4 11 Sudeste 17 Sudeste 0 951.9 1.3 36
2020-01-15 09:00:00 12.7 5 Sur 15 Sur 0 951.8 1.7 37
2020-01-15 08:00:00 11.5 8 Sur 17 Sur 0 951.4 1.5 37
2020-01-15 07:00:00 12.1 11 Sur 21 Sur 0 950.6 0.5 35
2020-01-15 06:00:00 12 10 Sur 21 Sudoeste 0 950.1 -0.3 35
2020-01-15 05:00:00 11.9 10 Sur 21 Sur 0 949.9 -0.4 34
2020-01-15 04:00:00 10.8 9 Sur 15 Sur 0 950.1 -0.4 38
2020-01-15 03:00:00 11.8 8 Sudoeste 17 Sudeste 0 950.4 -0.4 37
2020-01-15 02:00:00 10.8 11 Sur 18 Sudeste 0 950.3 -0.4 42
2020-01-15 01:00:00 11.2 9 Sur 18 Sur 0 950.5 0.2 42
2020-01-15 00:00:00 10.2 12 Sur 15 Sur 0 950.8 0.7 60
2020-01-14 23:00:00 11 6 Sur 15 Sur 0 950.7 1 48
2020-01-14 22:00:00 10.3 6 Sur 13 Sur 0 950.3 0.9 75
2020-01-14 21:00:00 10.8 3 Sur 18 Sudeste 0 950.1 0.6 83
2020-01-14 20:00:00 12.2 11 Sudeste 22 Sudeste 0 949.7 0.5 80
2020-01-14 19:00:00 12.5 11 Sudeste 22 Sudeste 0 949.4 0.5 84
2020-01-14 18:00:00 13.5 14 Sudeste 30 Sudeste 0 949.5 0.3 81
2020-01-14 17:00:00 15 18 Sudeste 32 Sudeste 0 949.2 -0.2 75
2020-01-14 16:00:00 16.8 15 Sur 32 Sur 0 948.9 -1.1 48
2020-01-14 15:00:00 16.8 19 Sudeste 35 Sur 0 949.2 -1.7 52
2020-01-14 14:00:00 16.4 23 Sur 37 Sudeste 0 949.4 -1.8 52
2020-01-14 13:00:00 16.2 23 Sudeste 39 Sudeste 0 950 -0.7 64
2020-01-14 12:00:00 16.2 21 Sudeste 39 Sudeste 0 950.9 0.6 71
2020-01-14 11:00:00 15.4 21 Sur 39 Sur 0 951.2 1.3 72
2020-01-14 10:00:00 14.3 18 Sudeste 30 Sur 0 950.7 1.4 83
2020-01-14 09:00:00 13.6 14 Sudeste 26 Sur 0 950.3 1.6 62
2020-01-14 08:00:00 11.8 9 Sur 17 Sur 0 949.9 1.5 45
2020-01-14 07:00:00 11.7 8 Sur 15 Sur 0 949.3 0.4 40
2020-01-14 06:00:00 10.9 10 Sur 17 Sur 0 948.7 -0.5 51
2020-01-14 05:00:00 9.9 6 Sudeste 13 Sudeste 0 948.4 -1 90
2020-01-14 04:00:00 11.2 10 Sudeste 21 Sur 0 948.9 -1 85
2020-01-14 03:00:00 11.3 4 Sur 9 Sur 0 949.2 -1.3 41
2020-01-14 02:00:00 10.6 5 Nordeste 13 Noroeste 0 949.4 -1.4 61
2020-01-14 01:00:00 11.5 6 Sur 13 Sur 0 949.9 -1.2 59
2020-01-14 00:00:00 10.3 0 Calma 9 Sudeste 0 950.5 -0.6 78
2020-01-13 23:00:00 10 6 Sudeste 11 Sudeste 0 950.8 0.1 86
2020-01-13 22:00:00 11.4 6 Sudeste 17 Sur 0 951.1 0.7 85
2020-01-13 21:00:00 11.9 10 Sur 21 Sudeste 0 951.1 1 85
2020-01-13 20:00:00 12.6 12 Sudeste 21 Sudeste 0 950.7 0.8 93
2020-01-13 19:00:00 13 12 Sur 21 Sudeste 0 950.4 0.4 91
2020-01-13 18:00:00 14.6 14 Sur 24 Sur 0 950.1 0 75
2020-01-13 17:00:00 16.5 15 Sur 26 Sur 0 949.9 -0.5 68
2020-01-13 16:00:00 16.6 15 Sur 28 Sudeste 0 950 -1.3 74
2020-01-13 15:00:00 17.3 18 Sudeste 35 Sudeste 0 950.1 -2.3 57
2020-01-13 14:00:00 17.8 19 Sudeste 33 Sur 0 950.4 -2.5 51
2020-01-13 13:00:00 16.6 18 Este 32 Este 0 951.3 -1.6 71
2020-01-13 12:00:00 15.7 18 Este 32 Este 0 952.4 -0.2 79
2020-01-13 11:00:00 14.7 19 Este 28 Este 0 952.9 0.7 83
2020-01-13 10:00:00 13.5 16 Este 26 Este 0 952.9 1.2 90
2020-01-13 09:00:00 12.7 14 Este 21 Este 0 952.6 1.1 96
2020-01-13 08:00:00 12.2 14 Sudeste 22 Sudeste 0 952.2 0.9 95
2020-01-13 07:00:00 11.9 13 Sudeste 24 Sudeste 0 951.7 0.1 93
2020-01-13 06:00:00 11.8 15 Sudeste 24 Este 0 951.5 -0.6 94
2020-01-13 05:00:00 11.8 14 Sudeste 30 Este 0 951.3 -0.5 90
2020-01-13 04:00:00 11.7 14 Sudeste 22 Este 0 951.6 -0.6 91
2020-01-13 03:00:00 11.4 15 Sudeste 26 Sudeste 0 952.1 -0.6 88
2020-01-13 02:00:00 11.5 18 Sudeste 30 Sudeste 0 951.8 -1.2 89
2020-01-13 01:00:00 11.6 17 Sudeste 28 Sudeste 0 952.2 -0.9 90
2020-01-13 00:00:00 12 19 Sudeste 30 Sudeste 0 952.7 -0.1 89
2020-01-12 23:00:00 12.2 17 Sudeste 24 Este 0 953 0 88
2020-01-12 22:00:00 11.7 15 Sudeste 24 Sudeste 0 953.1 -0.4 88
2020-01-12 21:00:00 11.8 11 Sudeste 22 Este 0 952.8 -0.2 86
2020-01-12 20:00:00 12 13 Este 21 Este 0 953 0.3 86
2020-01-12 19:00:00 11.7 10 Este 24 Este 0 953.5 1.1 85
2020-01-12 18:00:00 12.8 18 Este 26 Este 0 953 0.9 82
2020-01-12 17:00:00 13.6 19 Este 28 Este 0 952.7 0.3 88
2020-01-12 16:00:00 14.2 14 Este 28 Este 0 952.4 -1.2 81
2020-01-12 15:00:00 14.5 21 Este 32 Este 0 952.1 -2.5 70
2020-01-12 14:00:00 14.1 23 Este 30 Este 0 952.4 -2.5 76
2020-01-12 13:00:00 14.7 19 Este 37 Este 0 953.6 -1.5 70
2020-01-12 12:00:00 14.2 23 Este 30 Este 0 954.6 0.2 72
2020-01-12 11:00:00 13.9 15 Este 22 Este 0 954.9 1.1 80
2020-01-12 10:00:00 13 13 Este 21 Sudeste 0 955.1 1.8 82
2020-01-12 09:00:00 12.8 8 Este 26 Este 0 954.4 1.5 74
2020-01-12 08:00:00 12.7 5 Nordeste 15 Nordeste 0 953.8 0.5 85
2020-01-12 07:00:00 12.2 8 Norte 17 Norte 0 953.3 -0.7 85
2020-01-12 06:00:00 12.2 8 Norte 17 Nordeste 0 952.9 -1.3 84
2020-01-12 05:00:00 12 7 Noroeste 15 Oeste 0 953.3 -1.1 88
2020-01-12 04:00:00 12.2 12 Noroeste 22 Oeste 0 954 -0.7 86
2020-01-12 03:00:00 12 8 Noroeste 15 Norte 0 954.2 -1 85
2020-01-12 02:00:00 12 11 Noroeste 18 Noroeste 0 954.4 -0.5 86
2020-01-12 01:00:00 11.9 13 Noroeste 24 Oeste 0 954.7 -0.2 90
2020-01-12 00:00:00 11.7 10 Noroeste 32 Oeste 0 955.2 0.8 93
2020-01-11 23:00:00 11.7 18 Oeste 32 Noroeste 0 954.9 0.6 93
2020-01-11 22:00:00 11.9 18 Noroeste 33 Noroeste 0 954.9 1.1 87
2020-01-11 21:00:00 11.9 24 Noroeste 35 Noroeste 0 954.4 0.9 88
2020-01-11 20:00:00 11.9 24 Noroeste 41 Noroeste 0 954.3 0.8 87
2020-01-11 19:00:00 12.5 28 Noroeste 48 Noroeste 0 953.8 0.3 78
2020-01-11 18:00:00 12.9 27 Noroeste 42 Noroeste 0 953.5 -0.3 85
2020-01-11 17:00:00 13.1 24 Noroeste 37 Noroeste 0 953.5 -0.8 86
2020-01-11 16:00:00 13.8 30 Noroeste 41 Noroeste 0 953.5 -1.7 79
2020-01-11 15:00:00 14.5 25 Noroeste 35 Noroeste 0 953.8 -2.1 72
2020-01-11 14:00:00 14.4 22 Noroeste 39 Noroeste 0 954.3 -2.2 77
2020-01-11 13:00:00 13.8 21 Noroeste 37 Noroeste 0 955.2 -1 82
2020-01-11 12:00:00 13.6 24 Noroeste 39 Noroeste 0 955.9 0.6 80
2020-01-11 11:00:00 13.7 19 Noroeste 35 Oeste 0 956.5 1.6 79
2020-01-11 10:00:00 13 20 Noroeste 45 Noroeste 0 956.2 1.5 78
2020-01-11 09:00:00 12.7 26 Noroeste 48 Noroeste 0 955.3 0.4 83
2020-01-11 08:00:00 12.1 23 Noroeste 39 Noroeste 0 954.9 0 83
2020-01-11 07:00:00 11.6 26 Noroeste 35 Noroeste 0 954.7 -0.7 83
2020-01-11 06:00:00 12.3 23 Noroeste 42 Noroeste 0 954.9 -0.8 88
2020-01-11 05:00:00 11.9 22 Noroeste 33 Norte 0 954.9 -0.9 84
2020-01-11 04:00:00 12.7 17 Noroeste 32 Noroeste 0 955.4 -0.9 88
2020-01-11 03:00:00 13 14 Noroeste 21 Noroeste 0 955.7 -0.8 90
2020-01-11 02:00:00 13.2 14 Noroeste 22 Noroeste 0 955.8 -1.1 91
2020-01-11 01:00:00 13.4 12 Noroeste 30 Noroeste 0 956.3 -0.9 94
2020-01-11 00:00:00 13.4 15 Noroeste 30 Noroeste 0 956.5 -0.4 93
2020-01-10 23:00:00 13.3 16 Noroeste 32 Noroeste 0 956.9 0.2 96
2020-01-10 22:00:00 13.1 13 Norte 21 Noroeste 0 957.2 0.6 96
2020-01-10 21:00:00 13.6 9 Noroeste 17 Norte 0 956.9 0.5 88
2020-01-10 20:00:00 13.7 6 Norte 18 Norte 0 956.7 0.5 85
2020-01-10 19:00:00 13.4 9 Oeste 18 Noroeste 0 956.6 0.4 92
2020-01-10 18:00:00 14.3 9 Norte 21 Norte 0 956.4 0.3 80
2020-01-10 17:00:00 14.3 13 Nordeste 26 Nordeste 0 956.2 -0.4 88
2020-01-10 16:00:00 15.1 12 Nordeste 28 Norte 0 956.2 -0.9 78
2020-01-10 15:00:00 15.6 11 Norte 28 Norte 0 956.1 -1.7 84
2020-01-10 14:00:00 15 11 Norte 26 Norte 0.1 956.6 -1.8 89
2020-01-10 13:00:00 15 11 Norte 21 Norte 0.2 957.1 -1 94
2020-01-10 12:00:00 15 12 Norte 21 Norte 0 957.8 0.4 93
2020-01-10 11:00:00 15 8 Nordeste 18 Norte 0 958.4 1.4 89
2020-01-10 10:00:00 13.8 10 Norte 18 Este 0.1 958.1 1.3 95
2020-01-10 09:00:00 13.4 7 Norte 21 Norte 0.3 957.4 0.8 97
2020-01-10 08:00:00 13.2 10 Noroeste 17 Norte 0.3 957 0.1 97
2020-01-10 07:00:00 13 6 Norte 24 Norte 0.3 956.8 -0.4 96
2020-01-10 06:00:00 12.9 10 Noroeste 17 Noroeste 0.1 956.6 -0.6 94
2020-01-10 05:00:00 13.1 10 Noroeste 22 Oeste 0 956.9 -0.7 89
2020-01-10 04:00:00 13 12 Noroeste 24 Noroeste 0 957.2 -0.5 92
2020-01-10 03:00:00 12.3 9 Noroeste 32 Norte 0 957.2 -1.1 89
2020-01-10 02:00:00 13.4 16 Noroeste 30 Noroeste 0 957.6 -0.9 86
2020-01-10 01:00:00 13.3 19 Norte 33 Noroeste 0 957.7 -0.7 81
2020-01-10 00:00:00 13.1 15 Noroeste 33 Noroeste 0 958.3 0.2 76
2020-01-09 23:00:00 12.9 19 Noroeste 41 Noroeste 0 958.5 0.6 79
2020-01-09 22:00:00 13 23 Noroeste 42 Noroeste 0 958.4 1 76
2020-01-09 21:00:00 13.2 30 Noroeste 50 Norte 0 958.1 1 78
2020-01-09 20:00:00 13.2 27 Noroeste 42 Noroeste 0 957.9 1.2 77
2020-01-09 19:00:00 12.8 23 Noroeste 41 Noroeste 0 957.4 1 78
2020-01-09 18:00:00 13.5 28 Noroeste 54 Noroeste 0 957.1 0.6 81
2020-01-09 17:00:00 15.1 30 Oeste 42 Noroeste 0 956.7 -0.3 67
2020-01-09 16:00:00 15.8 23 Noroeste 41 Oeste 0 956.4 -1.5 67
2020-01-09 15:00:00 14.9 27 Noroeste 45 Oeste 0 956.5 -1.8 69
2020-01-09 14:00:00 15.7 23 Noroeste 37 Noroeste 0 957 -1.7 64
2020-01-09 13:00:00 14.6 25 Noroeste 42 Noroeste 0 957.9 -0.2 70
2020-01-09 12:00:00 15.3 18 Noroeste 33 Noroeste 0 958.3 1 62
2020-01-09 11:00:00 13.3 21 Noroeste 33 Noroeste 0 958.7 2.1 76
2020-01-09 10:00:00 13.6 12 Noroeste 26 Noroeste 0 958.1 1.6 77
2020-01-09 09:00:00 12.8 15 Norte 26 Noroeste 0 957.3 1.2 81
2020-01-09 08:00:00 12.6 12 Noroeste 18 Norte 0 956.6 0.6 83
2020-01-09 07:00:00 12.3 9 Noroeste 17 Noroeste 0 956.5 0 82
2020-01-09 06:00:00 12.4 7 Norte 18 Noroeste 0 956.1 -0.4 87
2020-01-09 05:00:00 12.1 12 Oeste 18 Noroeste 0 956 -0.6 88
2020-01-09 04:00:00 11.9 6 Noroeste 18 Noroeste 0 956.5 -0.4 87
2020-01-09 03:00:00 11.9 13 Oeste 18 Oeste 0 956.5 -0.6 83
2020-01-09 02:00:00 12.3 9 Noroeste 26 Noroeste 0 956.6 -0.9 81
2020-01-09 01:00:00 12.3 13 Noroeste 32 Noroeste 0 956.9 -0.5 80
2020-01-09 00:00:00 12.1 13 Noroeste 33 Noroeste 0 957.1 -0.2 83
2020-01-08 23:00:00 11.9 12 Noroeste 30 Noroeste 0 957.5 0.6 84
2020-01-08 22:00:00 11.8 19 Noroeste 32 Oeste 0 957.4 1 84
2020-01-08 21:00:00 12 18 Noroeste 35 Noroeste 0 957.3 1 81
2020-01-08 20:00:00 12 18 Noroeste 30 Noroeste 0 956.9 0.9 82
2020-01-08 19:00:00 11.8 15 Noroeste 35 Noroeste 0 956.4 0.6 83
2020-01-08 18:00:00 13.3 17 Norte 30 Noroeste 0 956.3 0.9 74
2020-01-08 17:00:00 14.8 15 Norte 32 Norte 0 956 0.1 69
2020-01-08 16:00:00 15.6 13 Norte 26 Norte 0 955.8 -0.7 66
2020-01-08 15:00:00 16.5 14 Norte 30 Norte 0 955.4 -1.9 65
2020-01-08 14:00:00 15.8 15 Norte 26 Norte 0 955.9 -1.8 67
2020-01-08 13:00:00 15.6 14 Este 22 Nordeste 0 956.5 -0.8 67
2020-01-08 12:00:00 14.7 4 Nordeste 22 Este 0 957.3 0.9 71
2020-01-08 11:00:00 14.9 8 Nordeste 18 Norte 0 957.7 1.8 73
2020-01-08 10:00:00 13.6 10 Este 15 Este 0 957.3 1.8 80
2020-01-08 09:00:00 12.5 6 Sudeste 9 Sudeste 0 956.4 1.4 84
2020-01-08 08:00:00 11.9 3 Este 11 Este 0 955.9 0.6 91
2020-01-08 07:00:00 11.8 6 Nordeste 21 Norte 0.3 955.5 -0.3 93
2020-01-08 06:00:00 11.1 12 Oeste 17 Oeste 0 955 -0.8 88
2020-01-08 05:00:00 10.8 7 Oeste 17 Noroeste 0 955.3 -0.5 84
2020-01-08 04:00:00 10.6 9 Oeste 18 Noroeste 0 955.8 -0.2 85
2020-01-08 03:00:00 10.7 10 Oeste 15 Oeste 0 955.8 -0.6 83
2020-01-08 02:00:00 11 9 Oeste 21 Norte 0 955.8 -0.9 83
2020-01-08 01:00:00 10.9 5 Noroeste 11 Norte 0 956 -0.6 83
2020-01-08 00:00:00 11.1 5 Oeste 18 Noroeste 0 956.4 0.3 84
2020-01-07 23:00:00 11.2 5 Oeste 11 Noroeste 0 956.7 0.9 80
2020-01-07 22:00:00 11 4 Noroeste 13 Norte 0 956.6 1.4 82
2020-01-07 21:00:00 11.3 7 Nordeste 15 Nordeste 0 956.1 1.2 80
2020-01-07 20:00:00 11.7 6 Este 17 Nordeste 0 955.8 1.2 77
2020-01-07 19:00:00 11.6 5 Sudeste 18 Sudeste 0 955.2 0.8 80
2020-01-07 18:00:00 12.7 13 Este 30 Este 0 954.9 0.6 81
2020-01-07 17:00:00 13.4 21 Este 32 Este 0 954.6 0 80
2020-01-07 16:00:00 14.5 22 Este 35 Este 0 954.4 -0.9 74
2020-01-07 15:00:00 14.6 26 Este 37 Este 0 954.3 -1.7 75
2020-01-07 14:00:00 14.4 26 Este 41 Este 0 954.6 -1.9 73
2020-01-07 13:00:00 13.8 26 Este 37 Este 0 955.3 -0.8 74
2020-01-07 12:00:00 13.8 28 Este 39 Este 0 956 0.9 78
2020-01-07 11:00:00 13.1 27 Este 41 Este 0 956.5 2.1 81
2020-01-07 10:00:00 12.9 21 Este 33 Este 0 956.1 2.2 78
2020-01-07 09:00:00 12.3 18 Este 26 Este 0 955.1 1.8 91
2020-01-07 08:00:00 11.8 6 Este 18 Este 0 954.4 1.2 84
2020-01-07 07:00:00 11.7 4 Este 9 Este 0.2 953.9 0.7 87
2020-01-07 06:00:00 11.4 4 Norte 21 Norte 0 953.3 -0.4 80
2020-01-07 05:00:00 12 10 Norte 33 Noroeste 0 953.2 -0.7 77
2020-01-07 04:00:00 11.8 15 Noroeste 33 Noroeste 0 953.2 -1.2 78
2020-01-07 03:00:00 12.5 13 Norte 37 Norte 0 953.7 -0.9 75
2020-01-07 02:00:00 12.8 17 Norte 33 Noroeste 0 953.9 -1.2 79
2020-01-07 01:00:00 12.8 14 Norte 35 Noroeste 0 954.4 -0.4 84
2020-01-07 00:00:00 12.6 19 Noroeste 37 Noroeste 0 954.6 0 84
2020-01-06 23:00:00 12.5 25 Noroeste 50 Noroeste 0 955.1 1.2 87
2020-01-06 22:00:00 12.8 27 Noroeste 54 Noroeste 0 954.8 1 85
2020-01-06 21:00:00 12.7 27 Noroeste 55 Noroeste 0.4 954.6 0.8 85
2020-01-06 20:00:00 13.1 33 Noroeste 54 Noroeste 0 953.9 0.1 90
2020-01-06 19:00:00 13 30 Noroeste 46 Noroeste 0 953.8 0.6 88
2020-01-06 18:00:00 13.4 30 Noroeste 46 Noroeste 0 953.8 0.3 86
2020-01-06 17:00:00 14 30 Noroeste 46 Noroeste 0 953.8 -0.2 78
2020-01-06 16:00:00 13.7 37 Noroeste 50 Noroeste 0 953.2 -1.7 85
2020-01-06 15:00:00 14.4 33 Noroeste 52 Noroeste 0 953.5 -2.3 76
2020-01-06 14:00:00 15.6 30 Noroeste 46 Noroeste 0 954 -2.6 70
2020-01-06 13:00:00 15.5 30 Noroeste 46 Noroeste 0 954.9 -1.5 65
2020-01-06 12:00:00 15.4 23 Noroeste 41 Norte 0 955.8 0 62
2020-01-06 11:00:00 15 24 Noroeste 41 Norte 0 956.6 1.3 66
2020-01-06 10:00:00 14 25 Norte 39 Noroeste 0 956.4 0.9 69
2020-01-06 09:00:00 12.6 14 Noroeste 24 Noroeste 0 955.8 0.3 90